»·PEaware :: N232Z L52-KPTV

N232Z :: L52-KPTV

FLIGHT INFORMATION

Flight Status: Arrived
Operator: Privately registered:
United States
More flights under this callsign
Pilot: Merv A. (1555)
Aircraft: Unknown
(LEG2)
More flights by this aircraft type
Origin: L52 Oceano Co
United States
Destination: KPTV Porterville Mun
United States
More flights between these airports :: More routes between these airports
Route: DIRECT
File this flight plan on PilotEdge
Remarks: Testing P3Dv4
Altitude:
(Current/Filed)
5,500ft
Speed:
(Current/Filed)
190kts
Departed: 17-Jul-17 03:59 AM
Arrived: 17-Jul-17 04:43 AM
Distance/Time
Traveled:
94nm/0:44
Distance/Time
To Go:
Arrived

Flight Plot

Page will automatically refresh every two minutes.

Flight plan parsing failed; only flown route is shown


Map Options




Map Legend


Flown Route
Filed Route
Departure Airport
Arrival Airport
Navaid (VOR, NDB)
Fix

Horizontal Profiles

Position Reports

Time Latitude Longitude Heading Altitude Ground
Speed
17-Jul-17 03:58 35.099129 -120.618915 19 17ft 0kts
17-Jul-17 03:59 35.099292 -120.619267 34 17ft 0kts
17-Jul-17 04:00 35.099292 -120.619267 34 17ft 0kts
17-Jul-17 04:01 35.099632 -120.619104 318 17ft 3kts
17-Jul-17 04:02 35.101710 -120.622723 305 17ft 88kts
17-Jul-17 04:03 35.095475 -120.638558 122 825ft 150kts
17-Jul-17 04:04 35.074776 -120.595046 94 1521ft 146kts
17-Jul-17 04:05 35.078239 -120.547101 99 2703ft 151kts
17-Jul-17 04:06 35.067234 -120.494999 94 3903ft 159kts
17-Jul-17 04:07 35.086373 -120.448156 53 4776ft 165kts
17-Jul-17 04:08 35.111801 -120.399395 53 5370ft 173kts
17-Jul-17 04:09 35.138729 -120.348092 53 5499ft 183kts
17-Jul-17 04:10 35.166484 -120.295628 53 5497ft 183kts
17-Jul-17 04:11 35.194240 -120.243380 53 5501ft 184kts
17-Jul-17 04:12 35.224330 -120.192636 49 5494ft 183kts
17-Jul-17 04:13 35.255046 -120.143218 49 5501ft 183kts
17-Jul-17 04:14 35.286047 -120.093314 49 5498ft 184kts
17-Jul-17 04:15 35.317059 -120.043301 49 5492ft 184kts
17-Jul-17 04:16 35.348367 -119.993280 49 5490ft 185kts
17-Jul-17 04:17 35.380087 -119.943108 49 5484ft 186kts
17-Jul-17 04:18 35.411851 -119.892995 49 5483ft 186kts
17-Jul-17 04:19 35.442869 -119.842349 52 5480ft 186kts
17-Jul-17 04:20 35.472149 -119.789942 52 5477ft 186kts
17-Jul-17 04:21 35.501359 -119.737556 52 5499ft 185kts
17-Jul-17 04:22 35.531314 -119.685348 51 5496ft 186kts
17-Jul-17 04:23 35.561309 -119.633567 51 5502ft 185kts
17-Jul-17 04:24 35.591460 -119.581789 51 5499ft 186kts
17-Jul-17 04:25 35.621742 -119.529973 51 5500ft 186kts
17-Jul-17 04:26 35.651917 -119.478284 51 5497ft 185kts
17-Jul-17 04:27 35.681934 -119.426836 50 5501ft 185kts
17-Jul-17 04:28 35.712055 -119.375174 51 5502ft 186kts
17-Jul-17 04:29 35.742354 -119.323198 51 4947ft 192kts
17-Jul-17 04:30 35.774285 -119.269078 51 4159ft 199kts
17-Jul-17 04:31 35.807147 -119.214334 51 3539ft 188kts
17-Jul-17 04:32 35.837451 -119.170427 41 3489ft 149kts
17-Jul-17 04:33 35.867802 -119.134389 41 2968ft 157kts
17-Jul-17 04:34 35.898832 -119.100314 38 2573ft 143kts
17-Jul-17 04:35 35.929535 -119.068854 38 2495ft 141kts
17-Jul-17 04:36 35.961822 -119.043044 7 2506ft 138kts
17-Jul-17 04:37 35.999293 -119.037249 356 2492ft 134kts
17-Jul-17 04:38 36.031577 -119.057303 309 2506ft 133kts
17-Jul-17 04:39 36.054040 -119.093813 289 2499ft 133kts
17-Jul-17 04:40 36.031939 -119.123255 176 2354ft 142kts
17-Jul-17 04:41 35.995969 -119.103978 156 2105ft 141kts
17-Jul-17 04:42 35.985692 -119.071789 9 1698ft 135kts
17-Jul-17 04:43 36.019080 -119.069211 321 1496ft 126kts
17-Jul-17 04:44 36.041495 -119.097751 345 1228ft 115kts
17-Jul-17 04:45 36.038749 -119.073889 136 652ft 96kts
17-Jul-17 04:46 36.029208 -119.060974 45 445ft 5kts
17-Jul-17 04:47 36.028096 -119.058599 135 445ft 10kts
17-Jul-17 04:48 36.028300 -119.057909 45 445ft 0kts

Navigation Log

Ident Type
Flight plan parsing failed, navigation log unavailable